createdAt,value
2023-03-26T00:01:29.839Z,66.63
2023-03-26T00:06:39.162Z,66.33
2023-03-26T00:11:48.329Z,66.56
2023-03-26T00:16:51.449Z,66.58
2023-03-26T00:21:54.495Z,66.66
2023-03-26T00:26:57.513Z,66.71
2023-03-26T00:32:00.526Z,66.83
2023-03-26T00:37:03.550Z,66.84
2023-03-26T00:42:06.986Z,66.82
2023-03-26T00:47:09.973Z,66.96
2023-03-26T00:52:14.301Z,67.17
2023-03-26T00:57:25.803Z,67.63
2023-03-26T01:02:36.026Z,67.95
2023-03-26T01:07:39.101Z,68.10
2023-03-26T01:12:42.333Z,67.97
2023-03-26T01:17:45.490Z,68.09
2023-03-26T01:22:52.431Z,68.22
2023-03-26T01:27:56.980Z,68.58
2023-03-26T01:33:22.101Z,68.61
2023-03-26T01:38:53.079Z,68.62
2023-03-26T01:44:36.399Z,68.53
2023-03-26T01:49:39.420Z,68.59
2023-03-26T01:54:43.143Z,68.75
2023-03-26T01:59:59.767Z,68.82
2023-03-26T02:05:28.677Z,68.38
2023-03-26T02:10:47.538Z,68.36
2023-03-26T02:16:03.542Z,68.17
2023-03-26T02:21:20.510Z,68.22
2023-03-26T02:26:24.781Z,68.31
2023-03-26T02:31:28.409Z,68.11
2023-03-26T02:36:31.641Z,68.13
2023-03-26T02:41:34.761Z,67.78
2023-03-26T02:46:37.736Z,67.65
2023-03-26T02:51:40.866Z,67.67
2023-03-26T02:56:43.876Z,67.48
2023-03-26T03:01:46.828Z,67.39
2023-03-26T03:06:53.129Z,67.35
2023-03-26T03:11:56.356Z,66.98
2023-03-26T03:16:59.337Z,66.97
2023-03-26T03:22:02.391Z,66.79
2023-03-26T03:27:05.682Z,66.66
2023-03-26T03:32:08.686Z,67.06
2023-03-26T03:37:12.124Z,66.88
2023-03-26T03:42:15.078Z,66.54
2023-03-26T03:47:18.020Z,66.55
2023-03-26T03:52:21.022Z,66.41
2023-03-26T03:57:24.279Z,66.49
2023-03-26T04:02:30.467Z,66.35
2023-03-26T04:07:33.672Z,66.46
2023-03-26T04:12:36.611Z,66.32
2023-03-26T04:17:42.763Z,66.29
2023-03-26T04:22:45.952Z,66.06
2023-03-26T04:27:49.166Z,66.06
2023-03-26T04:32:52.215Z,66.10
2023-03-26T04:37:55.228Z,66.09
2023-03-26T04:43:00.031Z,66.43
2023-03-26T04:48:02.997Z,66.35
2023-03-26T04:53:05.984Z,66.31
2023-03-26T04:58:09.568Z,66.20
2023-03-26T05:03:13.190Z,66.37
2023-03-26T05:08:16.182Z,66.59
2023-03-26T05:13:19.189Z,66.63
2023-03-26T05:18:22.180Z,66.83
2023-03-26T05:23:25.152Z,66.87
2023-03-26T05:28:28.368Z,67.03
2023-03-26T05:33:31.400Z,66.64
2023-03-26T05:38:34.492Z,66.04
2023-03-26T05:43:37.497Z,65.57
2023-03-26T05:48:40.577Z,65.60
2023-03-26T05:53:43.784Z,66.11
2023-03-26T05:58:47.673Z,66.49
2023-03-26T06:03:51.660Z,66.92
2023-03-26T06:09:01.831Z,67.59
2023-03-26T06:14:07.138Z,68.22
2023-03-26T06:19:10.153Z,67.92
2023-03-26T06:24:13.180Z,68.45
2023-03-26T06:29:16.359Z,68.42
2023-03-26T06:34:19.517Z,67.95
2023-03-26T06:39:22.552Z,67.54
2023-03-26T06:44:25.762Z,67.64
2023-03-26T06:49:28.932Z,68.37
2023-03-26T06:54:32.097Z,68.76
2023-03-26T06:59:35.109Z,69.41
2023-03-26T07:04:38.297Z,69.52
2023-03-26T07:09:41.232Z,69.56
2023-03-26T07:14:44.347Z,69.87
2023-03-26T07:19:47.274Z,69.71
2023-03-26T07:24:52.114Z,68.78
2023-03-26T07:30:32.725Z,68.19
2023-03-26T07:36:04.577Z,68.18
2023-03-26T07:41:22.456Z,67.57
2023-03-26T07:46:41.641Z,67.18
2023-03-26T07:51:45.021Z,66.23
2023-03-26T07:57:08.222Z,66.09
2023-03-26T08:02:31.667Z,65.43
2023-03-26T08:07:56.444Z,65.34
2023-03-26T08:13:17.874Z,65.03
2023-03-26T08:18:54.362Z,64.40
2023-03-26T08:24:28.370Z,64.80
2023-03-26T08:29:45.414Z,64.35
2023-03-26T08:34:48.478Z,63.38
2023-03-26T08:39:51.680Z,62.92
2023-03-26T08:45:31.561Z,62.42
2023-03-26T08:51:28.679Z,62.87
2023-03-26T08:56:52.818Z,62.78
2023-03-26T09:01:55.798Z,61.95
2023-03-26T09:07:29.370Z,61.57
2023-03-26T09:13:33.694Z,61.54
2023-03-26T09:19:14.811Z,61.56
2023-03-26T09:24:54.620Z,61.26
2023-03-26T09:30:35.228Z,60.62
2023-03-26T09:35:53.414Z,60.78
2023-03-26T09:41:13.578Z,60.60
2023-03-26T09:46:39.003Z,60.02
2023-03-26T09:52:27.289Z,59.44
2023-03-26T09:57:53.974Z,59.16
2023-03-26T10:03:28.070Z,58.77
2023-03-26T10:09:11.684Z,58.71
2023-03-26T10:14:38.645Z,59.27
2023-03-26T10:19:47.537Z,58.85
2023-03-26T10:25:31.142Z,59.39
2023-03-26T10:30:39.486Z,61.20
2023-03-26T10:36:12.452Z,62.19
2023-03-26T10:41:42.620Z,63.12
2023-03-26T10:47:43.928Z,63.92
2023-03-26T10:52:57.530Z,63.49
2023-03-26T10:58:23.726Z,63.32
2023-03-26T11:03:52.196Z,63.07
2023-03-26T11:09:03.014Z,62.69
2023-03-26T11:14:35.646Z,62.85
2023-03-26T11:19:41.062Z,62.28
2023-03-26T11:25:05.651Z,63.14
2023-03-26T11:30:28.764Z,62.63
2023-03-26T11:35:40.563Z,62.06
2023-03-26T11:40:50.885Z,61.10
2023-03-26T11:45:54.224Z,60.00
2023-03-26T11:51:08.178Z,57.38
2023-03-26T11:56:38.076Z,59.05
2023-03-26T12:01:56.605Z,60.44
2023-03-26T12:07:21.238Z,61.73
2023-03-26T12:12:33.115Z,62.68
2023-03-26T12:17:40.241Z,62.93
2023-03-26T12:22:44.320Z,62.62
2023-03-26T12:27:50.972Z,61.99
2023-03-26T12:33:26.251Z,61.97
2023-03-26T12:38:33.163Z,61.87
2023-03-26T12:44:56.032Z,61.86
2023-03-26T12:49:08.974Z,61.86
2023-03-26T12:54:51.372Z,61.86
2023-03-26T13:00:29.169Z,61.63
2023-03-26T13:06:23.318Z,60.61
2023-03-26T13:12:15.614Z,60.76
2023-03-26T13:17:33.667Z,60.39
2023-03-26T13:23:08.832Z,60.38
2023-03-26T13:28:47.155Z,60.69
2023-03-26T13:34:13.556Z,60.89
2023-03-26T13:39:33.955Z,60.09
2023-03-26T13:45:14.490Z,60.26
2023-03-26T13:50:37.434Z,60.30
2023-03-26T13:55:53.522Z,59.57
2023-03-26T14:01:18.711Z,59.64
2023-03-26T14:07:01.647Z,59.17
2023-03-26T14:12:22.169Z,58.53
2023-03-26T14:17:39.040Z,57.96
2023-03-26T14:23:25.016Z,57.72
2023-03-26T14:28:58.753Z,57.61
2023-03-26T14:34:54.194Z,57.30
2023-03-26T14:40:28.989Z,57.46
2023-03-26T14:46:07.723Z,57.22
2023-03-26T14:51:55.871Z,57.05
2023-03-26T14:57:26.498Z,55.96
2023-03-26T15:03:20.625Z,55.92
2023-03-26T15:09:08.026Z,55.35
2023-03-26T15:14:19.951Z,55.60
2023-03-26T15:19:55.128Z,55.07
2023-03-26T15:25:16.527Z,54.52
2023-03-26T15:30:57.988Z,54.04
2023-03-26T15:36:41.378Z,53.73
2023-03-26T15:42:12.021Z,53.40
2023-03-26T15:47:50.043Z,53.08
2023-03-26T15:53:19.604Z,53.49
2023-03-26T15:58:44.368Z,53.61
2023-03-26T16:04:23.072Z,53.91
2023-03-26T16:09:42.120Z,54.16
2023-03-26T16:15:21.297Z,54.59
2023-03-26T16:20:35.963Z,54.75
2023-03-26T16:26:40.093Z,54.95
2023-03-26T16:32:10.944Z,57.55
2023-03-26T16:37:50.113Z,59.27
2023-03-26T16:43:24.364Z,59.50
2023-03-26T16:48:36.964Z,59.17
2023-03-26T16:54:00.699Z,59.39
2023-03-26T17:00:04.952Z,59.97
2023-03-26T17:05:35.138Z,61.66
2023-03-26T17:11:22.860Z,62.16
2023-03-26T17:16:33.406Z,62.68
2023-03-26T17:21:55.620Z,63.53
2023-03-26T17:27:01.060Z,63.59
2023-03-26T17:32:14.985Z,63.22
2023-03-26T17:37:23.944Z,63.04
2023-03-26T17:42:35.955Z,62.94
2023-03-26T17:47:47.944Z,63.37
2023-03-26T17:53:19.984Z,64.22
2023-03-26T17:58:29.178Z,65.34
2023-03-26T18:03:54.040Z,65.86
2023-03-26T18:09:52.857Z,66.06
2023-03-26T18:15:07.220Z,66.10
2023-03-26T18:20:25.211Z,65.57
2023-03-26T18:25:34.358Z,64.70
2023-03-26T18:30:48.103Z,64.80
2023-03-26T18:35:55.616Z,64.67
2023-03-26T18:40:59.084Z,64.44
2023-03-26T18:46:03.740Z,64.65
2023-03-26T18:51:07.887Z,64.76
2023-03-26T18:56:43.231Z,64.93
2023-03-26T19:01:48.723Z,64.39
2023-03-26T19:06:55.221Z,64.39
2023-03-26T19:12:06.072Z,64.19
2023-03-26T19:17:09.180Z,64.21
2023-03-26T19:22:12.431Z,64.48
2023-03-26T19:27:16.808Z,65.10
2023-03-26T19:32:32.478Z,65.28
2023-03-26T19:37:50.291Z,65.63
2023-03-26T19:42:53.326Z,65.75
2023-03-26T19:48:07.745Z,66.18
2023-03-26T19:53:32.626Z,65.91
2023-03-26T19:58:36.396Z,65.78
2023-03-26T20:03:41.648Z,65.54
2023-03-26T20:08:45.031Z,65.59
2023-03-26T20:13:49.336Z,65.59
2023-03-26T20:18:52.517Z,65.58
2023-03-26T20:23:55.861Z,65.75
2023-03-26T20:28:59.006Z,65.85
2023-03-26T20:34:02.230Z,65.92
2023-03-26T20:39:09.675Z,65.86
2023-03-26T20:44:15.766Z,65.59
2023-03-26T20:49:19.310Z,65.79
2023-03-26T20:54:25.323Z,66.16
2023-03-26T20:59:28.981Z,65.89
2023-03-26T21:04:32.282Z,65.42
2023-03-26T21:09:35.862Z,65.43
2023-03-26T21:14:42.107Z,65.70
2023-03-26T21:19:47.249Z,65.79
2023-03-26T21:25:03.135Z,65.81
2023-03-26T21:30:14.527Z,66.09
2023-03-26T21:35:18.342Z,66.12
2023-03-26T21:40:21.578Z,65.88
2023-03-26T21:45:25.079Z,65.74
2023-03-26T21:50:28.601Z,65.64
2023-03-26T21:55:42.032Z,65.79
2023-03-26T22:01:03.100Z,65.57
2023-03-26T22:06:37.628Z,65.91
2023-03-26T22:11:42.167Z,66.20
2023-03-26T22:16:45.254Z,66.96
2023-03-26T22:21:48.209Z,67.36
2023-03-26T22:26:51.175Z,67.57
2023-03-26T22:31:54.291Z,67.36
2023-03-26T22:36:57.400Z,66.52
2023-03-26T22:42:02.618Z,67.11
2023-03-26T22:47:05.579Z,67.87
2023-03-26T22:52:08.627Z,68.08
2023-03-26T22:57:12.087Z,68.00
2023-03-26T23:02:16.720Z,68.26
2023-03-26T23:07:19.755Z,68.03
2023-03-26T23:12:22.986Z,68.08
2023-03-26T23:17:25.971Z,68.53
2023-03-26T23:22:28.974Z,68.46
2023-03-26T23:27:33.042Z,68.65
2023-03-26T23:32:38.086Z,68.39
2023-03-26T23:37:42.638Z,67.83
2023-03-26T23:42:47.516Z,67.52
2023-03-26T23:47:50.516Z,67.39
2023-03-26T23:52:53.704Z,67.21
2023-03-26T23:57:56.613Z,67.70
